Alma Lake, Indiana
Current Conditions -  °F | °C
As of 1:00 PM on Wednesday 26 Nov 2014 (Local Time) from KHUF Reporting Station
Scattered Clouds Scattered Clouds  
Wind Chill: 25°   Ceiling: Unl
Heat Index: 30°   Visibility: 10mi
Dew Point: 23°   Wind: 5mph
Humidity: 75%   Direction: 120°ESE
Pressure: 30.09"   Gusts: NA
Location:  39.5158°N, 87.1262°W
Report Text: KHUF 261800Z 12004KT 10SM SCT015 M01/M05 A3009 RMK AO2 T10111050
Loading
Personal Weather Stations






























Interactive Weather Map New forecast layout! Learn more

10-Day Weather Forecast

Advertisements
Track Severe Weather on mobile